Time;durP1;ratioP1;P1;durP2;ratioP2;P2;SDS_P1;SDS_P2;PMS_P1;PMS_P2;Temp;Humidity;BMP_temperature;BMP_pressure;BME280_temperature;BME280_humidity;BME280_pressure;Samples;Min_cycle;Max_cycle;Signal;HPM_P1;HPM_P2
2023/12/12 00:02:20;;;;;;;24.92;4.72;;;10.20;99.90;;;;;;4949486;29;20180;-44
2023/12/12 00:04:45;;;;;;;25.65;5.35;;;10.30;99.90;;;;;;4957164;28;20247;-48
2023/12/12 00:07:11;;;;;;;21.27;4.72;;;10.30;99.90;;;;;;4953925;28;20030;-47
2023/12/12 00:09:36;;;;;;;22.48;3.33;;;10.30;99.90;;;;;;4967848;28;20034;-44
2023/12/12 00:12:02;;;;;;;18.80;4.20;;;10.30;99.90;;;;;;4959909;28;20080;-43
2023/12/12 00:14:28;;;;;;;16.55;3.95;;;10.30;99.90;;;;;;4950847;29;20029;-47
2023/12/12 00:16:53;;;;;;;13.55;2.80;;;10.30;99.90;;;;;;4950900;29;20042;-44
2023/12/12 00:19:19;;;;;;;23.55;4.78;;;10.30;99.90;;;;;;4951054;29;20421;-46
2023/12/12 00:21:45;;;;;;;20.60;5.05;;;10.30;99.90;;;;;;4951955;29;20039;-42
2023/12/12 00:24:10;;;;;;;26.02;4.93;;;10.30;99.90;;;;;;4951730;29;20498;-42
2023/12/12 00:26:36;;;;;;;11.80;3.70;;;10.30;99.90;;;;;;4950770;28;20409;-42
2023/12/12 00:29:01;;;;;;;20.08;4.82;;;10.30;99.90;;;;;;4958807;28;20106;-44
2023/12/12 00:31:27;;;;;;;19.17;4.72;;;10.20;99.90;;;;;;4969497;28;20102;-43
2023/12/12 00:33:52;;;;;;;17.77;3.85;;;10.10;99.90;;;;;;4969221;28;20486;-43
2023/12/12 00:36:18;;;;;;;18.48;3.80;;;10.10;99.90;;;;;;4968017;28;20064;-41
2023/12/12 00:38:43;;;;;;;19.35;4.20;;;10.10;99.90;;;;;;4969585;28;20031;-43
2023/12/12 00:41:09;;;;;;;19.92;4.15;;;10.00;99.90;;;;;;4963582;28;20058;-41
2023/12/12 00:43:34;;;;;;;22.73;4.70;;;10.00;99.90;;;;;;4950369;29;20039;-43
2023/12/12 00:46:00;;;;;;;17.88;4.68;;;10.00;99.90;;;;;;4950943;29;20059;-41
2023/12/12 00:48:25;;;;;;;26.55;5.60;;;10.00;99.90;;;;;;4950367;29;20575;-41
2023/12/12 00:50:51;;;;;;;13.55;4.07;;;9.90;99.90;;;;;;4950240;29;20039;-41
2023/12/12 00:53:16;;;;;;;15.15;3.72;;;9.90;99.90;;;;;;4933113;29;20406;-40
2023/12/12 00:55:42;;;;;;;24.08;5.07;;;9.90;99.90;;;;;;4950377;29;20023;-41
2023/12/12 00:58:07;;;;;;;17.05;3.63;;;9.90;99.90;;;;;;4969618;28;20160;-45
2023/12/12 01:00:33;;;;;;;21.88;5.00;;;9.90;99.90;;;;;;4971037;28;20258;-47
2023/12/12 01:02:58;;;;;;;19.50;4.35;;;9.90;99.90;;;;;;4971828;28;20057;-48
2023/12/12 01:05:24;;;;;;;16.88;3.40;;;9.90;99.90;;;;;;4972303;28;20023;-46
2023/12/12 01:07:50;;;;;;;13.60;2.95;;;9.80;99.90;;;;;;4972055;28;20030;-46
2023/12/12 01:10:15;;;;;;;20.75;4.13;;;9.80;99.90;;;;;;4972055;28;20033;-45
2023/12/12 01:12:41;;;;;;;17.33;5.10;;;9.80;99.90;;;;;;4954426;28;20452;-46
2023/12/12 01:15:07;;;;;;;16.92;4.13;;;9.70;99.90;;;;;;4971954;28;20049;-46
2023/12/12 01:17:33;;;;;;;17.83;4.82;;;9.70;99.90;;;;;;4971968;28;20486;-48
2023/12/12 01:19:58;;;;;;;16.80;5.10;;;9.70;99.90;;;;;;4971682;28;20034;-45
2023/12/12 01:22:24;;;;;;;23.90;4.20;;;9.70;99.90;;;;;;4971140;28;20038;-45
2023/12/12 01:24:49;;;;;;;23.67;4.35;;;9.70;99.90;;;;;;4972013;28;20419;-45
2023/12/12 01:27:15;;;;;;;18.02;3.60;;;9.60;99.90;;;;;;4971869;28;20023;-49
2023/12/12 01:29:40;;;;;;;20.17;3.40;;;9.50;99.90;;;;;;4971675;28;20420;-46
2023/12/12 01:32:06;;;;;;;19.75;4.53;;;9.50;99.90;;;;;;4954096;28;20391;-46
2023/12/12 01:34:31;;;;;;;21.33;4.75;;;9.40;99.90;;;;;;4971649;28;20019;-49
2023/12/12 01:36:57;;;;;;;21.85;5.30;;;9.40;99.90;;;;;;4954388;28;20025;-47
2023/12/12 01:39:22;;;;;;;26.15;6.25;;;9.30;99.90;;;;;;4971531;28;20031;-49
2023/12/12 01:41:49;;;;;;;27.85;5.93;;;9.30;99.90;;;;;;4971800;28;20023;-46
2023/12/12 01:44:14;;;;;;;16.10;4.05;;;9.40;99.90;;;;;;4971632;28;20026;-47
2023/12/12 01:46:48;;;;;;;23.80;5.45;;;9.30;99.90;;;;;;4971706;28;20034;-49
2023/12/12 01:49:16;;;;;;;20.83;4.32;;;9.30;99.90;;;;;;4954081;28;20035;-45
2023/12/12 01:51:43;;;;;;;19.48;4.70;;;9.40;99.90;;;;;;4971198;28;20026;-46
2023/12/12 01:54:08;;;;;;;24.08;4.10;;;9.40;99.90;;;;;;4971333;28;20019;-48
2023/12/12 01:56:35;;;;;;;20.63;5.18;;;9.40;99.90;;;;;;4971465;28;20037;-48
2023/12/12 01:59:01;;;;;;;22.27;5.03;;;9.30;99.90;;;;;;4971078;28;20030;-45
2023/12/12 02:01:28;;;;;;;22.67;5.22;;;9.30;99.90;;;;;;4971096;28;20038;-45
2023/12/12 02:03:56;;;;;;;29.05;4.07;;;9.30;99.90;;;;;;4971152;28;20460;-43
2023/12/12 02:06:24;;;;;;;19.23;3.75;;;9.30;99.90;;;;;;4971112;28;20027;-47
2023/12/12 02:08:51;;;;;;;20.08;4.32;;;9.20;99.90;;;;;;4970959;28;20050;-46
2023/12/12 02:11:17;;;;;;;28.13;5.70;;;9.20;99.90;;;;;;4953713;28;20409;-45
2023/12/12 02:13:43;;;;;;;23.42;3.90;;;9.10;99.90;;;;;;4971017;28;20023;-45
2023/12/12 02:16:09;;;;;;;17.35;4.20;;;9.10;99.90;;;;;;4971049;28;20038;-47
2023/12/12 02:18:36;;;;;;;34.33;6.10;;;9.10;99.90;;;;;;4971044;28;20080;-47
2023/12/12 02:21:01;;;;;;;18.23;4.15;;;9.10;99.90;;;;;;4970884;28;20482;-46
2023/12/12 02:23:28;;;;;;;28.65;4.70;;;9.10;99.90;;;;;;4970565;28;20045;-46
2023/12/12 02:25:54;;;;;;;17.60;4.93;;;9.10;99.90;;;;;;4970987;28;20098;-52
2023/12/12 02:28:20;;;;;;;26.92;5.55;;;9.10;99.90;;;;;;4970821;28;20023;-48
2023/12/12 02:30:45;;;;;;;18.05;4.13;;;9.00;99.90;;;;;;4970580;28;20042;-46
2023/12/12 02:33:11;;;;;;;17.60;3.85;;;9.00;99.90;;;;;;4970364;28;20089;-50
2023/12/12 02:35:36;;;;;;;30.63;6.30;;;9.10;99.90;;;;;;4970731;28;20035;-46
2023/12/12 02:38:02;;;;;;;16.10;4.05;;;9.10;99.90;;;;;;4970704;28;20489;-42
2023/12/12 02:40:27;;;;;;;18.65;4.95;;;9.00;99.90;;;;;;4953425;28;20049;-46
2023/12/12 02:42:53;;;;;;;25.23;5.32;;;9.00;99.90;;;;;;4970261;28;20035;-47
2023/12/12 02:45:18;;;;;;;20.08;4.18;;;9.00;99.90;;;;;;4970733;28;20053;-46
2023/12/12 02:47:44;;;;;;;31.27;5.00;;;9.20;99.90;;;;;;4970621;28;20031;-47
2023/12/12 02:50:10;;;;;;;24.60;5.88;;;9.00;99.90;;;;;;4970598;28;20390;-47
2023/12/12 02:52:35;;;;;;;25.20;4.78;;;9.00;99.90;;;;;;4970637;28;20355;-46
2023/12/12 02:55:01;;;;;;;22.85;4.80;;;9.00;99.90;;;;;;4953281;28;20026;-45
2023/12/12 02:57:26;;;;;;;28.23;5.65;;;8.90;99.90;;;;;;4970370;28;20077;-45
2023/12/12 02:59:52;;;;;;;32.42;6.75;;;8.90;99.90;;;;;;4970139;28;20023;-44
2023/12/12 03:02:17;;;;;;;41.08;5.75;;;8.80;99.90;;;;;;4952954;28;20029;-46
2023/12/12 03:04:43;;;;;;;22.27;5.13;;;8.80;99.90;;;;;;4970259;28;20031;-49
2023/12/12 03:07:09;;;;;;;26.45;5.05;;;8.70;99.90;;;;;;4970539;28;20084;-46
2023/12/12 03:09:35;;;;;;;26.67;6.63;;;8.70;99.90;;;;;;4970365;28;20482;-47
2023/12/12 03:12:00;;;;;;;25.17;4.90;;;8.60;99.90;;;;;;4970141;28;20110;-46
2023/12/12 03:14:30;;;;;;;21.23;4.40;;;8.60;99.90;;;;;;4970188;28;20482;-47
2023/12/12 03:16:56;;;;;;;25.60;4.93;;;8.50;99.90;;;;;;4970124;28;20106;-45
2023/12/12 03:19:22;;;;;;;22.55;4.80;;;8.50;99.90;;;;;;4969854;28;20482;-46
2023/12/12 03:21:48;;;;;;;26.80;4.80;;;8.50;99.90;;;;;;4970058;28;20481;-46
2023/12/12 03:24:14;;;;;;;19.85;4.55;;;8.50;99.90;;;;;;4969800;28;20027;-46
2023/12/12 03:26:39;;;;;;;24.85;5.40;;;8.50;99.90;;;;;;4970127;28;20405;-48
2023/12/12 03:29:05;;;;;;;19.52;5.70;;;8.40;99.90;;;;;;4970007;28;20102;-45
2023/12/12 03:31:31;;;;;;;21.27;4.95;;;8.40;99.90;;;;;;4969950;28;20026;-47
2023/12/12 03:33:57;;;;;;;22.00;6.72;;;8.40;99.90;;;;;;4969709;28;20031;-47
2023/12/12 03:36:22;;;;;;;29.17;6.20;;;8.40;99.90;;;;;;4969759;28;20077;-46
2023/12/12 03:38:48;;;;;;;14.98;4.30;;;8.30;99.90;;;;;;4952391;28;20027;-46
2023/12/12 03:41:13;;;;;;;25.45;6.75;;;8.30;99.90;;;;;;4969967;28;20030;-51
2023/12/12 03:43:39;;;;;;;21.85;4.85;;;8.30;99.90;;;;;;4968782;28;20038;-47
2023/12/12 03:46:05;;;;;;;26.30;5.20;;;8.30;99.90;;;;;;4969824;28;20019;-45
2023/12/12 03:48:30;;;;;;;22.40;5.40;;;8.30;99.90;;;;;;4969531;28;20057;-46
2023/12/12 03:50:56;;;;;;;23.58;5.43;;;8.20;99.90;;;;;;4969554;28;20058;-50
2023/12/12 03:53:23;;;;;;;23.50;5.00;;;8.30;99.90;;;;;;4969520;28;20037;-48
2023/12/12 03:55:48;;;;;;;27.20;5.43;;;8.30;99.90;;;;;;4969656;28;20019;-47
2023/12/12 03:58:14;;;;;;;28.55;5.40;;;8.40;99.90;;;;;;4969440;28;20482;-46
2023/12/12 04:00:40;;;;;;;23.38;5.57;;;8.30;99.90;;;;;;4969554;28;20027;-47
2023/12/12 04:03:05;;;;;;;27.08;6.28;;;8.30;99.90;;;;;;4969162;28;20045;-45
2023/12/12 04:05:31;;;;;;;30.10;5.38;;;8.40;99.90;;;;;;4969564;28;20406;-45
2023/12/12 04:07:56;;;;;;;24.95;5.20;;;8.40;99.90;;;;;;4969360;28;20096;-44
2023/12/12 04:10:22;;;;;;;21.13;5.00;;;8.50;99.90;;;;;;4969392;28;20545;-44
2023/12/12 04:12:48;;;;;;;26.27;4.93;;;8.50;99.90;;;;;;4969070;28;20031;-45
2023/12/12 04:15:13;;;;;;;26.42;5.28;;;8.50;99.90;;;;;;4969412;28;20038;-49
2023/12/12 04:17:39;;;;;;;27.27;5.97;;;8.50;99.90;;;;;;4969380;28;20261;-49
2023/12/12 04:20:05;;;;;;;21.58;4.75;;;8.60;99.90;;;;;;4969362;28;20030;-50
2023/12/12 04:22:30;;;;;;;18.52;4.78;;;8.60;99.90;;;;;;4968875;28;20074;-47
2023/12/12 04:24:56;;;;;;;32.35;5.28;;;8.60;99.90;;;;;;4969462;28;20156;-45
2023/12/12 04:27:21;;;;;;;18.52;4.72;;;8.60;99.90;;;;;;4969201;28;20038;-45
2023/12/12 04:29:47;;;;;;;33.95;6.03;;;8.60;99.90;;;;;;4969476;28;20027;-44
2023/12/12 04:32:13;;;;;;;11.95;4.05;;;8.70;99.90;;;;;;4968902;28;20042;-48
2023/12/12 04:34:39;;;;;;;28.95;6.32;;;8.80;99.90;;;;;;4969650;28;20019;-46
2023/12/12 04:37:04;;;;;;;25.83;5.15;;;8.90;99.90;;;;;;4969012;28;20031;-45
2023/12/12 04:39:30;;;;;;;26.63;5.22;;;9.00;99.90;;;;;;4951693;28;20023;-45
2023/12/12 04:41:55;;;;;;;15.38;4.82;;;9.00;99.90;;;;;;4968698;28;20034;-48
2023/12/12 04:44:21;;;;;;;19.30;4.68;;;9.00;99.90;;;;;;4968928;28;20110;-48
2023/12/12 04:46:46;;;;;;;18.70;4.53;;;9.00;99.90;;;;;;4968918;28;20453;-47
2023/12/12 04:49:12;;;;;;;17.15;4.07;;;9.00;99.90;;;;;;4968812;28;20096;-46
2023/12/12 04:51:37;;;;;;;12.25;4.45;;;9.00;99.90;;;;;;4968900;28;20031;-45
2023/12/12 04:54:03;;;;;;;22.00;4.60;;;8.90;99.90;;;;;;4951579;28;20478;-46
2023/12/12 04:56:29;;;;;;;21.55;5.90;;;9.00;99.90;;;;;;4971709;28;20113;-50
2023/12/12 04:58:54;;;;;;;18.08;4.93;;;9.00;99.90;;;;;;4972613;28;20034;-45
2023/12/12 05:01:20;;;;;;;21.15;4.78;;;9.00;99.90;;;;;;4972742;28;20406;-43
2023/12/12 05:03:45;;;;;;;18.10;4.90;;;9.00;99.90;;;;;;4972180;28;20041;-42
2023/12/12 05:06:11;;;;;;;25.58;5.25;;;9.00;99.90;;;;;;4972295;28;20102;-46
2023/12/12 05:08:37;;;;;;;20.75;4.13;;;9.00;99.90;;;;;;4972190;28;20030;-46
2023/12/12 05:11:04;;;;;;;26.30;4.78;;;9.00;99.90;;;;;;4972080;28;20031;-47
2023/12/12 05:13:30;;;;;;;16.27;4.45;;;8.90;99.90;;;;;;4972007;28;20475;-46
2023/12/12 05:15:55;;;;;;;16.05;4.70;;;9.00;99.90;;;;;;4972170;28;20038;-46
2023/12/12 05:18:21;;;;;;;25.75;4.22;;;9.00;99.90;;;;;;4971783;28;20418;-46
2023/12/12 05:20:48;;;;;;;19.65;4.43;;;9.00;99.90;;;;;;4972078;28;20029;-47
2023/12/12 05:23:13;;;;;;;29.13;6.53;;;9.10;99.90;;;;;;4972113;28;20464;-48
2023/12/12 05:25:40;;;;;;;18.13;4.85;;;9.10;99.90;;;;;;4972254;28;20103;-47
2023/12/12 05:28:05;;;;;;;22.13;5.10;;;9.10;99.90;;;;;;4972949;28;20529;-48
2023/12/12 05:30:31;;;;;;;20.92;5.63;;;9.20;99.90;;;;;;4973187;28;20035;-45
2023/12/12 05:32:57;;;;;;;24.20;5.80;;;9.00;99.90;;;;;;4955867;28;20027;-45
2023/12/12 05:35:22;;;;;;;25.98;7.13;;;8.80;99.90;;;;;;4972216;28;20023;-48
2023/12/12 05:37:48;;;;;;;20.83;6.38;;;8.60;99.90;;;;;;4972118;28;20394;-46
2023/12/12 05:40:16;;;;;;;27.58;5.53;;;8.50;99.90;;;;;;4971935;28;20038;-46
2023/12/12 05:42:42;;;;;;;22.58;4.93;;;8.40;99.90;;;;;;4971434;28;20355;-46
2023/12/12 05:45:07;;;;;;;16.55;4.32;;;8.40;99.90;;;;;;4971753;28;20026;-45
2023/12/12 05:47:33;;;;;;;23.85;4.85;;;8.40;99.90;;;;;;4971608;28;20037;-50
2023/12/12 05:49:59;;;;;;;17.58;4.78;;;8.40;99.90;;;;;;4972067;28;20378;-50
2023/12/12 05:52:25;;;;;;;15.00;4.20;;;8.40;99.90;;;;;;4971249;28;20034;-49
2023/12/12 05:54:51;;;;;;;18.40;4.78;;;8.40;99.90;;;;;;4971309;28;20019;-48
2023/12/12 05:57:17;;;;;;;22.50;6.15;;;8.40;99.90;;;;;;4971851;28;20019;-45
2023/12/12 05:59:42;;;;;;;22.65;4.82;;;8.40;99.90;;;;;;4971405;28;20023;-46
2023/12/12 06:02:08;;;;;;;22.02;5.45;;;8.40;99.90;;;;;;4971213;28;20118;-47
2023/12/12 06:04:35;;;;;;;27.30;5.40;;;8.40;99.90;;;;;;4971306;28;20041;-46
2023/12/12 06:07:01;;;;;;;27.60;5.57;;;8.40;99.90;;;;;;4970903;28;20102;-47
2023/12/12 06:09:27;;;;;;;23.23;4.57;;;8.40;99.90;;;;;;4971228;28;20557;-46
2023/12/12 06:11:53;;;;;;;16.55;4.88;;;8.40;99.90;;;;;;4971695;28;20061;-45
2023/12/12 06:14:18;;;;;;;24.92;5.75;;;8.30;99.90;;;;;;4971290;28;20037;-48
2023/12/12 06:16:44;;;;;;;27.05;6.28;;;8.30;99.90;;;;;;4971395;28;20125;-52
2023/12/12 06:19:09;;;;;;;31.30;6.40;;;8.20;99.90;;;;;;4971053;28;20084;-47
2023/12/12 06:21:35;;;;;;;20.40;5.13;;;8.20;99.90;;;;;;4971191;28;20076;-48
2023/12/12 06:24:01;;;;;;;24.20;5.15;;;8.20;99.90;;;;;;4970777;28;20502;-47
2023/12/12 06:26:27;;;;;;;17.88;5.20;;;8.20;99.90;;;;;;4971159;28;20426;-47
2023/12/12 06:28:53;;;;;;;26.13;5.97;;;8.10;99.90;;;;;;4971277;28;20221;-47
2023/12/12 06:31:19;;;;;;;25.50;4.95;;;8.00;99.90;;;;;;4953710;28;20106;-47
2023/12/12 06:33:45;;;;;;;19.67;4.65;;;8.00;99.90;;;;;;4970893;28;20114;-48
2023/12/12 06:36:10;;;;;;;25.65;6.15;;;8.00;99.90;;;;;;4970907;28;20031;-49
2023/12/12 06:38:36;;;;;;;14.45;4.57;;;8.00;99.90;;;;;;4970724;28;20031;-49
2023/12/12 06:41:01;;;;;;;20.42;5.47;;;8.00;99.90;;;;;;4970644;28;20030;-47
2023/12/12 06:43:27;;;;;;;26.98;5.28;;;8.00;99.90;;;;;;4970549;28;20031;-50
2023/12/12 06:45:53;;;;;;;20.55;5.38;;;8.00;99.90;;;;;;4970656;28;20030;-48
2023/12/12 06:48:18;;;;;;;26.25;5.30;;;7.90;99.90;;;;;;4970850;28;20485;-45
2023/12/12 06:50:44;;;;;;;26.15;5.40;;;7.90;99.90;;;;;;4970611;28;20490;-46
2023/12/12 06:53:10;;;;;;;21.17;6.57;;;7.90;99.90;;;;;;4970244;28;20521;-47
2023/12/12 06:55:37;;;;;;;17.70;4.35;;;7.90;99.90;;;;;;4970642;28;20029;-49
2023/12/12 06:58:03;;;;;;;28.60;6.82;;;7.90;99.90;;;;;;4970481;28;20106;-47
2023/12/12 07:00:29;;;;;;;18.15;5.57;;;7.90;99.90;;;;;;4970863;28;20050;-47
2023/12/12 07:02:55;;;;;;;19.17;4.95;;;7.90;99.90;;;;;;4970196;28;20063;-49
2023/12/12 07:05:21;;;;;;;24.90;6.13;;;7.90;99.90;;;;;;4970647;28;20446;-48
2023/12/12 07:07:47;;;;;;;29.60;6.70;;;7.90;99.90;;;;;;4970261;28;20031;-48
2023/12/12 07:10:13;;;;;;;30.35;6.60;;;7.90;99.90;;;;;;4970553;28;20110;-44
2023/12/12 07:12:39;;;;;;;28.02;7.22;;;7.90;99.90;;;;;;4970104;28;20034;-50
2023/12/12 07:15:05;;;;;;;24.02;6.22;;;7.80;99.90;;;;;;4970512;28;20489;-47
2023/12/12 07:17:30;;;;;;;28.58;6.18;;;7.80;99.90;;;;;;4970594;28;20034;-46
2023/12/12 07:19:56;;;;;;;25.63;5.82;;;7.80;99.90;;;;;;4969317;28;20486;-49
2023/12/12 07:22:21;;;;;;;24.25;5.70;;;7.70;99.90;;;;;;4969771;28;20038;-48
2023/12/12 07:24:47;;;;;;;24.27;5.57;;;7.80;99.90;;;;;;4970251;28;20033;-50
2023/12/12 07:27:12;;;;;;;20.90;5.82;;;7.80;99.90;;;;;;4970131;28;20221;-47
2023/12/12 07:29:38;;;;;;;27.83;6.70;;;7.80;99.90;;;;;;4970244;28;20038;-46
2023/12/12 07:32:04;;;;;;;23.20;6.25;;;7.80;99.90;;;;;;4969812;28;20066;-45
2023/12/12 07:34:29;;;;;;;14.38;5.38;;;7.80;99.90;;;;;;4970348;28;20034;-49
2023/12/12 07:36:55;;;;;;;18.83;5.82;;;7.80;99.90;;;;;;4970060;28;20494;-48
2023/12/12 07:39:20;;;;;;;18.08;4.90;;;7.80;99.90;;;;;;4970077;28;20038;-49
2023/12/12 07:41:46;;;;;;;26.02;6.07;;;7.70;99.90;;;;;;4970009;28;20110;-49
2023/12/12 07:44:12;;;;;;;24.55;6.82;;;7.80;99.90;;;;;;4970306;28;20494;-47
2023/12/12 07:46:38;;;;;;;29.77;5.60;;;7.80;99.90;;;;;;4970345;28;20019;-51
2023/12/12 07:49:05;;;;;;;27.85;6.10;;;7.80;99.90;;;;;;4969796;28;20509;-45
2023/12/12 07:51:32;;;;;;;24.75;6.00;;;7.80;99.90;;;;;;4969485;28;20051;-44
2023/12/12 07:53:58;;;;;;;20.52;5.95;;;7.80;99.90;;;;;;4969873;28;20033;-49
2023/12/12 07:56:24;;;;;;;22.73;6.05;;;7.90;99.90;;;;;;4969877;28;20041;-47
2023/12/12 07:58:49;;;;;;;30.17;5.85;;;8.00;99.90;;;;;;4969756;28;20125;-50
2023/12/12 08:01:15;;;;;;;22.65;6.75;;;8.00;99.90;;;;;;4969823;28;20043;-46
2023/12/12 08:03:41;;;;;;;24.23;5.60;;;8.10;99.90;;;;;;4969427;28;20046;-47
2023/12/12 08:06:07;;;;;;;18.40;5.72;;;8.10;99.90;;;;;;4969879;28;20382;-48
2023/12/12 08:08:33;;;;;;;22.20;5.75;;;8.10;99.90;;;;;;4969793;28;20030;-46
2023/12/12 08:10:59;;;;;;;20.58;6.35;;;8.20;99.90;;;;;;4969714;28;20023;-45
2023/12/12 08:13:24;;;;;;;22.08;5.95;;;8.30;99.90;;;;;;4969590;28;20428;-46
2023/12/12 08:15:50;;;;;;;27.38;6.18;;;8.40;99.90;;;;;;4969986;28;20035;-49
2023/12/12 08:18:15;;;;;;;19.08;6.32;;;8.40;99.90;;;;;;4969418;28;20035;-47
2023/12/12 08:20:41;;;;;;;18.95;4.95;;;8.40;99.90;;;;;;4952117;28;20045;-46
2023/12/12 08:23:06;;;;;;;23.50;6.78;;;8.40;99.90;;;;;;4969499;28;20441;-49
2023/12/12 08:25:32;;;;;;;29.13;6.47;;;8.50;99.90;;;;;;4969707;28;20090;-49
2023/12/12 08:27:58;;;;;;;18.63;6.05;;;8.50;99.90;;;;;;4969571;28;20027;-47
2023/12/12 08:30:23;;;;;;;28.50;6.28;;;8.50;99.90;;;;;;4970473;28;20088;-46
2023/12/12 08:32:49;;;;;;;26.90;5.63;;;8.50;99.90;;;;;;4972665;28;20114;-48
2023/12/12 08:35:14;;;;;;;20.05;5.45;;;8.50;99.90;;;;;;4972590;28;20022;-47
2023/12/12 08:37:40;;;;;;;18.05;5.70;;;8.50;99.90;;;;;;4972853;28;20482;-50
2023/12/12 08:40:06;;;;;;;22.30;5.90;;;8.50;99.90;;;;;;4972606;28;20030;-52
2023/12/12 08:42:32;;;;;;;19.15;5.60;;;8.50;99.90;;;;;;4972605;28;20019;-46
2023/12/12 08:44:58;;;;;;;23.55;5.68;;;8.50;99.90;;;;;;4972752;28;20417;-52
2023/12/12 08:47:23;;;;;;;20.70;5.88;;;8.60;99.90;;;;;;4964820;28;20015;-46
2023/12/12 08:49:49;;;;;;;23.40;5.82;;;8.60;99.90;;;;;;4966685;28;20101;-49
2023/12/12 08:52:15;;;;;;;24.23;6.88;;;8.70;99.90;;;;;;4954164;28;20074;-45
2023/12/12 08:54:44;;;;;;;21.23;5.15;;;8.70;99.90;;;;;;4955639;28;20031;-49
2023/12/12 08:57:11;;;;;;;21.08;6.20;;;8.90;99.90;;;;;;4953707;28;20032;-49
2023/12/12 08:59:38;;;;;;;18.90;5.10;;;9.00;99.90;;;;;;4963610;28;20023;-45
2023/12/12 09:02:04;;;;;;;21.77;5.82;;;9.00;99.90;;;;;;4961173;28;20113;-46
2023/12/12 09:04:29;;;;;;;21.25;5.90;;;9.00;99.90;;;;;;4972446;28;20084;-47
2023/12/12 09:06:55;;;;;;;25.48;6.97;;;9.00;99.90;;;;;;4959600;28;20122;-46
2023/12/12 09:09:22;;;;;;;15.60;4.65;;;9.00;99.90;;;;;;4953199;29;20023;-45
2023/12/12 09:11:48;;;;;;;16.23;5.00;;;9.00;99.90;;;;;;4952904;29;20576;-46
2023/12/12 09:14:13;;;;;;;14.80;5.20;;;8.90;99.90;;;;;;4953148;29;20536;-46
2023/12/12 09:16:39;;;;;;;22.77;5.40;;;9.00;99.90;;;;;;4959312;28;20114;-49
2023/12/12 09:19:06;;;;;;;20.75;5.30;;;9.00;99.90;;;;;;4968662;28;20080;-47
2023/12/12 09:21:31;;;;;;;19.92;5.13;;;9.10;99.90;;;;;;4972580;28;20106;-51
2023/12/12 09:23:57;;;;;;;22.80;5.38;;;9.20;99.90;;;;;;4958267;28;20106;-45
2023/12/12 09:26:22;;;;;;;26.55;6.32;;;9.10;99.90;;;;;;4959431;28;20498;-47
2023/12/12 09:28:48;;;;;;;21.48;5.22;;;9.10;99.90;;;;;;4952776;29;20395;-42
2023/12/12 09:31:14;;;;;;;14.73;4.40;;;9.10;99.90;;;;;;4952682;29;20029;-46
2023/12/12 09:33:39;;;;;;;17.00;4.32;;;9.10;99.90;;;;;;4952718;29;20034;-48
2023/12/12 09:36:08;;;;;;;25.02;5.38;;;9.30;99.90;;;;;;4935740;29;20127;-48
2023/12/12 09:38:34;;;;;;;14.30;5.40;;;9.10;99.90;;;;;;4952540;29;20028;-47
2023/12/12 09:41:00;;;;;;;19.38;4.30;;;9.10;99.90;;;;;;4952219;28;20550;-48
2023/12/12 09:43:28;;;;;;;21.92;4.72;;;9.20;99.90;;;;;;4951930;29;20485;-45
2023/12/12 09:45:57;;;;;;;22.83;5.43;;;9.20;99.90;;;;;;4952827;28;20071;-46
2023/12/12 09:48:23;;;;;;;18.85;5.25;;;9.30;99.90;;;;;;4952387;28;20506;-50
2023/12/12 09:50:50;;;;;;;18.38;4.82;;;9.30;99.90;;;;;;4952636;29;20038;-46
2023/12/12 09:53:17;;;;;;;19.98;5.32;;;9.40;99.90;;;;;;4952238;28;20042;-49
2023/12/12 09:55:45;;;;;;;21.90;6.07;;;9.40;99.90;;;;;;4952636;29;20055;-49
2023/12/12 09:58:10;;;;;;;21.95;5.80;;;9.40;99.90;;;;;;4952512;28;20027;-50
2023/12/12 10:00:36;;;;;;;25.05;5.68;;;9.40;99.90;;;;;;4952328;29;20046;-51
2023/12/12 10:03:05;;;;;;;24.58;5.93;;;9.30;99.90;;;;;;4955426;28;20032;-51
2023/12/12 10:05:33;;;;;;;17.23;4.93;;;9.30;99.90;;;;;;4962362;28;20030;-51
2023/12/12 10:08:01;;;;;;;21.10;5.75;;;9.20;99.90;;;;;;4961325;28;20421;-47
2023/12/12 10:10:27;;;;;;;15.55;5.22;;;9.20;99.90;;;;;;4967499;28;20076;-55
2023/12/12 10:12:53;;;;;;;28.80;7.03;;;9.20;99.90;;;;;;4952965;28;20030;-47
2023/12/12 10:15:26;;;;;;;20.63;5.43;;;9.20;99.90;;;;;;4968417;28;20038;-49
2023/12/12 10:17:58;;;;;;;20.25;6.10;;;9.20;99.90;;;;;;4960554;28;20053;-51
2023/12/12 10:20:26;;;;;;;19.95;6.05;;;9.20;99.90;;;;;;4960039;28;20023;-48
2023/12/12 10:22:54;;;;;;;20.75;6.10;;;9.20;99.90;;;;;;4962566;28;20034;-50
2023/12/12 10:25:22;;;;;;;20.10;5.72;;;9.20;99.90;;;;;;4966618;28;20092;-50
2023/12/12 10:27:51;;;;;;;19.67;5.95;;;9.30;99.90;;;;;;4955507;28;20479;-50
2023/12/12 10:30:16;;;;;;;22.52;6.45;;;9.30;99.90;;;;;;4959763;28;20031;-48
2023/12/12 10:32:43;;;;;;;19.40;6.82;;;9.30;99.90;;;;;;4953246;28;20030;-48
2023/12/12 10:35:08;;;;;;;20.75;6.80;;;9.30;99.90;;;;;;4959614;28;20031;-49
2023/12/12 10:37:34;;;;;;;20.90;6.20;;;9.10;99.90;;;;;;4952969;28;20214;-47
2023/12/12 10:40:22;;;;;;;18.70;6.40;;;9.20;99.90;;;;;;4951615;29;20027;-47
2023/12/12 10:42:49;;;;;;;21.23;6.28;;;9.30;99.90;;;;;;4952319;28;20031;-50
2023/12/12 10:45:16;;;;;;;19.73;6.30;;;9.30;99.90;;;;;;4951900;28;20482;-48
2023/12/12 10:47:47;;;;;;;23.90;6.75;;;9.20;99.90;;;;;;4968884;28;20027;-49
2023/12/12 10:50:14;;;;;;;16.25;6.53;;;9.20;99.90;;;;;;4962241;28;20027;-48
2023/12/12 10:52:41;;;;;;;22.70;5.90;;;9.20;99.90;;;;;;4964436;28;20149;-48
2023/12/12 10:55:10;;;;;;;21.05;6.63;;;9.10;99.90;;;;;;4959859;28;20027;-48
2023/12/12 10:57:42;;;;;;;44.28;20.60;;;9.10;99.90;;;;;;4953120;28;20138;-50
2023/12/12 11:00:12;;;;;;;21.83;7.95;;;9.00;99.90;;;;;;4939679;28;20046;-48
2023/12/12 11:02:43;;;;;;;26.42;7.13;;;9.00;99.90;;;;;;4962444;28;20051;-47
2023/12/12 11:05:10;;;;;;;22.20;7.10;;;9.00;99.90;;;;;;4958774;28;20422;-49
2023/12/12 11:07:37;;;;;;;21.83;7.50;;;9.00;99.90;;;;;;4960653;28;20091;-52
2023/12/12 11:10:08;;;;;;;25.67;8.35;;;9.00;99.90;;;;;;4951550;29;20099;-51
2023/12/12 11:12:38;;;;;;;20.75;8.02;;;9.00;99.90;;;;;;4951000;28;20035;-52
2023/12/12 11:15:06;;;;;;;29.75;8.88;;;9.00;99.90;;;;;;4951459;28;20549;-52
2023/12/12 11:17:32;;;;;;;25.95;8.80;;;9.00;99.90;;;;;;4963011;28;20057;-49
2023/12/12 11:19:58;;;;;;;21.48;9.20;;;8.90;99.90;;;;;;4970984;28;20104;-47
2023/12/12 11:22:43;;;;;;;25.50;11.25;;;8.80;99.90;;;;;;4966870;28;20490;-50
2023/12/12 11:25:15;;;;;;;25.93;9.03;;;8.90;99.90;;;;;;4966702;28;20035;-51
2023/12/12 11:27:47;;;;;;;28.90;8.88;;;8.80;99.90;;;;;;4966778;28;20313;-50
2023/12/12 11:30:14;;;;;;;20.85;8.63;;;8.80;99.90;;;;;;4950869;29;20023;-51
2023/12/12 11:32:41;;;;;;;26.27;7.82;;;8.80;99.90;;;;;;4963297;28;20069;-52
2023/12/12 11:35:25;;;;;;;19.38;7.88;;;8.70;99.90;;;;;;4969425;28;20616;-49
2023/12/12 11:37:52;;;;;;;31.48;9.50;;;8.70;99.90;;;;;;4970349;28;20096;-52
2023/12/12 11:40:18;;;;;;;28.50;8.38;;;8.70;99.90;;;;;;4970423;28;20030;-53
2023/12/12 11:42:46;;;;;;;26.10;9.07;;;8.70;99.90;;;;;;4969941;28;20031;-50
2023/12/12 11:45:28;;;;;;;19.80;8.10;;;8.70;99.90;;;;;;4970136;28;20549;-51
2023/12/12 11:47:53;;;;;;;28.27;8.70;;;8.70;99.90;;;;;;4969901;28;20030;-51
2023/12/12 11:50:22;;;;;;;20.25;7.82;;;8.70;99.90;;;;;;4953165;28;20027;-52
2023/12/12 11:52:48;;;;;;;34.42;10.25;;;8.70;99.90;;;;;;4952587;28;20402;-48
2023/12/12 11:55:21;;;;;;;24.67;8.80;;;8.70;99.90;;;;;;4970241;28;20027;-53
2023/12/12 11:57:47;;;;;;;23.50;8.40;;;8.70;99.90;;;;;;4953001;28;20068;-50
2023/12/12 12:00:20;;;;;;;26.48;8.82;;;8.70;99.90;;;;;;4969896;28;20131;-49
2023/12/12 12:02:45;;;;;;;26.10;7.32;;;8.70;99.90;;;;;;4969764;28;20073;-49
2023/12/12 12:05:11;;;;;;;21.70;7.65;;;8.70;99.90;;;;;;4970995;28;20498;-50
2023/12/12 12:07:38;;;;;;;27.63;7.85;;;8.70;99.90;;;;;;4973638;28;20111;-50
2023/12/12 12:10:05;;;;;;;19.55;7.70;;;8.70;99.90;;;;;;4973545;28;20096;-51
2023/12/12 12:12:31;;;;;;;26.00;7.70;;;8.80;99.90;;;;;;4972876;28;20547;-54
2023/12/12 12:15:05;;;;;;;23.15;7.65;;;8.80;99.90;;;;;;4973214;28;20027;-50
2023/12/12 12:17:37;;;;;;;21.20;8.23;;;8.90;99.90;;;;;;4973070;28;20015;-54
2023/12/12 12:20:04;;;;;;;19.17;7.03;;;8.80;99.90;;;;;;4973445;28;20054;-51
2023/12/12 12:22:30;;;;;;;22.25;7.95;;;8.80;99.90;;;;;;4972358;28;20029;-51
2023/12/12 12:24:56;;;;;;;19.92;6.60;;;8.80;99.90;;;;;;4973241;28;20096;-54
2023/12/12 12:27:22;;;;;;;17.17;7.50;;;8.80;99.90;;;;;;4973409;28;20031;-50
2023/12/12 12:30:01;;;;;;;21.70;7.47;;;8.90;99.90;;;;;;4973151;28;20501;-51
2023/12/12 12:32:26;;;;;;;24.00;6.95;;;8.90;99.90;;;;;;4973048;28;20017;-49
2023/12/12 12:35:11;;;;;;;21.08;7.30;;;8.90;99.90;;;;;;4973251;28;20394;-51
2023/12/12 12:37:37;;;;;;;24.77;8.10;;;8.90;99.90;;;;;;4972793;28;20027;-53
2023/12/12 12:40:04;;;;;;;12.18;7.00;;;9.00;99.90;;;;;;4972979;28;20100;-51
2023/12/12 12:42:34;;;;;;;16.98;8.15;;;9.00;99.90;;;;;;4972461;28;20110;-51